Time;durP1;ratioP1;P1;durP2;ratioP2;P2;SDS_P1;SDS_P2;PMS_P1;PMS_P2;Temp;Humidity;BMP_temperature;BMP_pressure;BME280_temperature;BME280_humidity;BME280_pressure;Samples;Min_cycle;Max_cycle;Signal;HPM_P1;HPM_P2
2022/08/29 00:00:43;;;;;;;5.53;4.00;;;;;;;13.01;100.00;101099.38;4988841;28;20206;-70
2022/08/29 00:03:10;;;;;;;5.50;4.33;;;;;;;12.94;100.00;101090.00;4988995;28;20688;-70
2022/08/29 00:05:38;;;;;;;6.90;4.33;;;;;;;12.95;100.00;101089.13;4989029;28;20677;-70
2022/08/29 00:08:05;;;;;;;6.13;4.70;;;;;;;13.01;100.00;101086.31;4988605;28;20727;-70
2022/08/29 00:10:34;;;;;;;6.13;4.27;;;;;;;12.96;100.00;101088.19;4988704;28;20201;-70
2022/08/29 00:13:01;;;;;;;8.13;4.97;;;;;;;12.99;100.00;101085.50;4989063;28;20725;-70
2022/08/29 00:15:28;;;;;;;7.70;4.33;;;;;;;12.85;100.00;101087.66;4988685;28;20193;-70
2022/08/29 00:17:54;;;;;;;5.83;4.33;;;;;;;12.77;100.00;101097.47;4987826;28;20581;-70
2022/08/29 00:20:23;;;;;;;6.70;4.10;;;;;;;12.80;100.00;101100.00;4989358;28;20197;-70
2022/08/29 00:22:50;;;;;;;7.30;4.27;;;;;;;12.83;100.00;101095.53;4990261;28;20205;-70
2022/08/29 00:25:16;;;;;;;6.43;4.37;;;;;;;12.95;100.00;101096.13;4992153;28;20205;-70
2022/08/29 00:27:44;;;;;;;5.63;3.47;;;;;;;12.93;100.00;101090.03;4990935;28;20240;-70
2022/08/29 00:30:12;;;;;;;7.23;4.30;;;;;;;12.90;100.00;101101.47;4991939;28;20574;-70
2022/08/29 00:32:39;;;;;;;7.20;4.27;;;;;;;13.05;100.00;101100.16;4991006;28;20209;-70
2022/08/29 00:35:10;;;;;;;6.23;4.23;;;;;;;13.05;100.00;101108.91;4994101;28;20206;-70
2022/08/29 00:37:37;;;;;;;6.17;3.80;;;;;;;12.99;100.00;101109.06;4993403;28;20842;-70
2022/08/29 00:40:07;;;;;;;6.23;4.63;;;;;;;13.02;100.00;101111.59;4993041;28;20205;-70
2022/08/29 00:42:34;;;;;;;6.43;4.43;;;;;;;13.04;100.00;101111.56;4993679;28;20193;-70
2022/08/29 00:45:02;;;;;;;8.30;4.33;;;;;;;13.00;100.00;101109.94;4991870;28;20205;-70
2022/08/29 00:47:33;;;;;;;8.87;4.43;;;;;;;13.06;100.00;101126.28;4989818;28;20301;-70
2022/08/29 00:50:03;;;;;;;6.27;3.90;;;;;;;12.93;100.00;101121.44;4992502;28;20550;-70
2022/08/29 00:52:34;;;;;;;4.30;3.80;;;;;;;12.92;100.00;101127.59;4986130;28;20205;-70
2022/08/29 00:55:02;;;;;;;4.43;3.83;;;;;;;12.99;100.00;101122.13;4991135;28;20193;-70
2022/08/29 00:57:32;;;;;;;5.17;3.60;;;;;;;12.89;100.00;101125.91;4991374;28;20229;-70
2022/08/29 00:59:59;;;;;;;5.13;4.07;;;;;;;12.76;100.00;101121.94;4974489;28;20202;-70
2022/08/29 01:02:28;;;;;;;5.07;3.93;;;;;;;12.84;100.00;101128.69;4989136;28;20209;-71
2022/08/29 01:04:54;;;;;;;8.80;4.73;;;;;;;12.74;100.00;101123.75;4992253;28;20291;-70
2022/08/29 01:07:20;;;;;;;6.00;4.40;;;;;;;12.67;100.00;101123.88;4991291;28;20301;-70
2022/08/29 01:09:47;;;;;;;9.83;4.30;;;;;;;12.59;100.00;101131.06;4991467;28;20197;-70
2022/08/29 01:12:17;;;;;;;7.00;4.10;;;;;;;12.62;100.00;101119.69;4990407;28;20220;-70
2022/08/29 01:14:48;;;;;;;5.10;3.87;;;;;;;12.58;100.00;101121.53;4992251;28;20673;-70
2022/08/29 01:17:19;;;;;;;7.07;4.33;;;;;;;12.54;100.00;101121.63;4991415;28;20873;-70
2022/08/29 01:19:51;;;;;;;5.67;4.03;;;;;;;12.45;100.00;101118.38;4988005;28;20303;-70
2022/08/29 01:22:39;;;;;;;4.80;3.60;;;;;;;12.50;100.00;101120.84;4991355;28;20189;-70
2022/08/29 01:25:11;;;;;;;6.30;3.67;;;;;;;12.52;100.00;101131.28;4991183;28;20224;-70
2022/08/29 01:27:41;;;;;;;4.83;3.97;;;;;;;12.62;100.00;101127.53;4988729;28;20887;-70
2022/08/29 01:30:09;;;;;;;5.60;3.80;;;;;;;12.44;100.00;101128.88;4986901;28;20198;-69
2022/08/29 01:32:35;;;;;;;4.87;3.83;;;;;;;12.47;100.00;101128.78;4990581;28;20573;-69
2022/08/29 01:35:02;;;;;;;4.90;3.70;;;;;;;12.38;100.00;101124.63;4988697;28;20212;-72
2022/08/29 01:37:32;;;;;;;5.67;3.87;;;;;;;12.42;100.00;101128.91;4985471;28;20228;-70
2022/08/29 01:39:59;;;;;;;5.90;3.73;;;;;;;12.39;100.00;101133.38;4994134;28;20198;-71
2022/08/29 01:42:27;;;;;;;4.10;3.40;;;;;;;12.37;100.00;101128.16;5001186;28;20208;-70
2022/08/29 01:44:55;;;;;;;5.73;3.40;;;;;;;12.38;100.00;101129.03;4990838;28;20205;-70
2022/08/29 01:47:24;;;;;;;7.70;4.17;;;;;;;12.17;100.00;101128.69;4997748;28;20712;-69
2022/08/29 01:49:51;;;;;;;6.23;3.53;;;;;;;12.19;100.00;101133.84;4991761;28;20209;-72
2022/08/29 01:52:18;;;;;;;5.37;3.43;;;;;;;12.13;100.00;101127.88;4994232;28;20211;-70
2022/08/29 01:54:45;;;;;;;4.87;3.53;;;;;;;12.03;100.00;101126.41;5002840;28;20202;-70
2022/08/29 01:57:13;;;;;;;4.60;3.33;;;;;;;12.14;100.00;101131.38;4998214;28;20224;-70
2022/08/29 01:59:43;;;;;;;5.17;3.80;;;;;;;12.13;100.00;101120.03;4996740;28;20240;-70
2022/08/29 02:02:15;;;;;;;5.47;3.53;;;;;;;12.06;100.00;101128.06;5000154;28;20201;-70
2022/08/29 02:04:41;;;;;;;4.57;3.53;;;;;;;12.09;100.00;101126.25;5002551;28;20284;-70
2022/08/29 02:07:08;;;;;;;4.87;3.13;;;;;;;11.97;100.00;101126.53;5001056;28;20660;-70
2022/08/29 02:09:34;;;;;;;4.00;3.47;;;;;;;12.01;100.00;101130.78;5000136;28;20290;-70
2022/08/29 02:12:05;;;;;;;4.93;3.27;;;;;;;11.89;100.00;101129.31;5009683;28;20204;-70
2022/08/29 02:14:32;;;;;;;4.47;3.40;;;;;;;12.02;100.00;101129.91;5012457;28;20213;-70
2022/08/29 02:17:01;;;;;;;4.40;3.00;;;;;;;11.89;100.00;101129.31;5003415;28;20225;-70
2022/08/29 02:19:27;;;;;;;3.50;2.90;;;;;;;11.85;100.00;101126.78;4994505;28;20247;-70
2022/08/29 02:21:54;;;;;;;5.17;3.73;;;;;;;11.92;100.00;101126.66;4992992;28;20235;-70
2022/08/29 02:24:20;;;;;;;4.27;3.00;;;;;;;11.94;100.00;101126.59;4999089;28;20201;-70
2022/08/29 02:26:47;;;;;;;4.80;3.47;;;;;;;11.86;100.00;101132.00;4993547;28;20735;-70
2022/08/29 02:29:13;;;;;;;4.73;2.93;;;;;;;11.83;100.00;101129.44;4985894;28;20247;-70
2022/08/29 02:31:42;;;;;;;3.70;2.93;;;;;;;11.68;100.00;101129.78;4990566;28;20202;-70
2022/08/29 02:34:10;;;;;;;5.50;3.37;;;;;;;11.65;100.00;101127.25;4987791;28;20205;-70
2022/08/29 02:36:37;;;;;;;6.37;3.13;;;;;;;11.66;100.00;101132.47;4991306;28;20315;-70
2022/08/29 02:39:04;;;;;;;5.60;3.83;;;;;;;11.77;100.00;101136.56;4990076;28;20228;-70
2022/08/29 02:41:31;;;;;;;5.43;3.63;;;;;;;11.70;100.00;101136.72;4989827;28;20570;-70
2022/08/29 02:43:58;;;;;;;4.00;3.60;;;;;;;11.75;100.00;101134.84;4990877;28;20619;-70
2022/08/29 02:46:25;;;;;;;5.63;3.60;;;;;;;11.66;100.00;101137.69;4992490;28;20290;-70
2022/08/29 02:48:51;;;;;;;5.73;2.77;;;;;;;11.53;100.00;101142.28;4990109;28;20222;-70
2022/08/29 02:51:21;;;;;;;4.87;3.60;;;;;;;11.56;100.00;101138.78;4990284;28;20665;-70
2022/08/29 02:53:48;;;;;;;4.53;3.10;;;;;;;11.57;100.00;101137.88;4995594;28;20571;-70
2022/08/29 02:56:14;;;;;;;7.73;3.13;;;;;;;11.60;100.00;101137.81;4990695;28;20208;-70
2022/08/29 02:58:41;;;;;;;4.70;3.00;;;;;;;11.57;100.00;101137.88;5026551;23;20228;-74
2022/08/29 03:01:08;;;;;;;5.87;3.13;;;;;;;11.60;100.00;101135.19;5028359;28;20204;-74
2022/08/29 03:03:34;;;;;;;3.73;3.13;;;;;;;11.48;100.00;101138.94;5026670;28;20200;-75
2022/08/29 03:06:01;;;;;;;4.40;3.40;;;;;;;11.47;100.00;101138.97;5026118;28;20198;-74
2022/08/29 03:08:29;;;;;;;3.97;3.13;;;;;;;11.54;100.00;101135.34;5024596;28;20578;-74
2022/08/29 03:10:56;;;;;;;4.03;3.00;;;;;;;11.58;100.00;101134.38;5020745;28;20576;-74
2022/08/29 03:13:22;;;;;;;5.47;3.70;;;;;;;11.51;100.00;101140.63;5029321;22;20239;-74
2022/08/29 03:15:49;;;;;;;4.17;3.50;;;;;;;11.43;100.00;101139.91;5008063;28;20201;-74
2022/08/29 03:18:15;;;;;;;4.93;3.60;;;;;;;11.48;100.00;101143.28;5005747;28;20212;-74
2022/08/29 03:20:42;;;;;;;5.10;3.50;;;;;;;11.44;100.00;101146.88;5008273;28;20216;-73
2022/08/29 03:23:09;;;;;;;7.03;3.67;;;;;;;11.35;100.00;101147.94;5010170;28;20229;-74
2022/08/29 03:25:38;;;;;;;4.97;3.43;;;;;;;11.48;100.00;101151.13;5001260;28;20199;-74
2022/08/29 03:28:04;;;;;;;6.43;3.53;;;;;;;11.19;100.00;101157.81;5004740;28;20279;-73
2022/08/29 03:30:31;;;;;;;5.63;3.73;;;;;;;11.32;100.00;101154.06;5005361;28;20550;-74
2022/08/29 03:32:58;;;;;;;3.87;3.40;;;;;;;11.22;100.00;101149.94;5010416;28;20218;-75
2022/08/29 03:35:24;;;;;;;6.20;3.80;;;;;;;11.11;100.00;101150.13;5004257;28;20211;-74
2022/08/29 03:37:54;;;;;;;7.17;3.23;;;;;;;11.16;100.00;101150.06;5002528;28;20206;-74
2022/08/29 03:40:21;;;;;;;7.07;3.53;;;;;;;11.22;100.00;101154.28;5005929;28;20232;-73
2022/08/29 03:42:49;;;;;;;3.53;2.93;;;;;;;11.34;100.00;101154.03;5006104;28;20226;-74
2022/08/29 03:45:19;;;;;;;3.83;3.03;;;;;;;11.23;100.00;101158.63;5011969;28;20207;-75
2022/08/29 03:47:45;;;;;;;4.70;3.40;;;;;;;11.25;100.00;101149.00;5004768;28;20854;-74
2022/08/29 03:50:13;;;;;;;8.07;3.83;;;;;;;11.32;100.00;101153.22;5000962;28;20189;-74
2022/08/29 03:52:41;;;;;;;5.03;3.17;;;;;;;11.27;100.00;101152.44;5004052;28;20237;-74
2022/08/29 03:55:09;;;;;;;5.47;3.63;;;;;;;11.27;100.00;101147.22;5005609;28;20201;-74
2022/08/29 03:57:36;;;;;;;3.53;2.93;;;;;;;11.16;100.00;101144.84;5004699;28;20210;-74
2022/08/29 04:00:10;;;;;;;8.13;3.60;;;;;;;11.13;100.00;101148.38;5009992;28;20249;-75
2022/08/29 04:02:38;;;;;;;5.43;3.80;;;;;;;11.32;100.00;101148.84;5004468;28;20225;-74
2022/08/29 04:05:08;;;;;;;5.07;3.33;;;;;;;11.18;100.00;101143.03;5007959;28;20203;-73
2022/08/29 04:07:40;;;;;;;6.80;3.37;;;;;;;11.34;100.00;101154.03;4997524;28;20776;-72
2022/08/29 04:10:09;;;;;;;6.53;4.13;;;;;;;11.00;100.00;101159.94;5002140;28;20208;-74
2022/08/29 04:12:36;;;;;;;6.07;3.73;;;;;;;11.13;100.00;101153.59;5004163;28;20652;-74
2022/08/29 04:15:05;;;;;;;5.00;3.30;;;;;;;11.05;100.00;101154.63;5005519;28;20537;-74
2022/08/29 04:17:32;;;;;;;4.73;3.47;;;;;;;11.05;100.00;101150.28;5005606;28;20200;-74
2022/08/29 04:19:58;;;;;;;4.43;3.30;;;;;;;11.01;100.00;101153.84;4998184;28;20222;-74
2022/08/29 04:22:24;;;;;;;4.30;3.23;;;;;;;10.86;100.00;101154.97;4999347;28;20234;-74
2022/08/29 04:24:51;;;;;;;4.43;3.63;;;;;;;11.07;100.00;101153.69;4997078;28;20189;-74
2022/08/29 04:27:17;;;;;;;4.20;3.10;;;;;;;11.17;100.00;101159.63;4999891;28;20627;-74
2022/08/29 04:29:47;;;;;;;5.40;3.47;;;;;;;11.09;100.00;101164.97;5002200;28;20202;-73
2022/08/29 04:32:16;;;;;;;5.90;3.43;;;;;;;11.05;100.00;101163.31;5004982;28;21502;-74
2022/08/29 04:34:43;;;;;;;4.97;3.40;;;;;;;11.08;100.00;101158.03;5002769;28;20569;-74
2022/08/29 04:37:09;;;;;;;4.90;3.27;;;;;;;11.20;100.00;101156.91;4996077;28;20256;-74
2022/08/29 04:39:36;;;;;;;5.13;3.37;;;;;;;11.24;100.00;101158.59;5004592;28;20244;-74
2022/08/29 04:42:03;;;;;;;4.50;3.13;;;;;;;11.29;100.00;101164.59;4993429;28;20229;-74
2022/08/29 04:44:30;;;;;;;4.40;3.37;;;;;;;11.26;100.00;101162.03;4999203;28;20202;-74
2022/08/29 04:46:56;;;;;;;5.40;3.53;;;;;;;11.31;100.00;101167.13;4998469;28;20196;-74
2022/08/29 04:49:24;;;;;;;7.90;3.40;;;;;;;11.30;100.00;101173.28;5002980;28;20722;-73
2022/08/29 04:51:52;;;;;;;7.93;3.93;;;;;;;11.30;100.00;101171.50;4997766;28;20569;-74
2022/08/29 04:54:19;;;;;;;3.67;2.90;;;;;;;11.23;100.00;101174.28;5000370;28;20205;-73
2022/08/29 04:56:45;;;;;;;6.77;3.80;;;;;;;11.26;100.00;101174.22;5001727;28;20691;-74
2022/08/29 04:59:12;;;;;;;5.30;3.37;;;;;;;11.43;100.00;101172.09;5003466;28;20585;-74
2022/08/29 05:01:38;;;;;;;7.20;3.70;;;;;;;11.47;100.00;101176.41;4998449;28;20230;-74
2022/08/29 05:04:05;;;;;;;6.10;3.40;;;;;;;11.50;100.00;101178.06;4995244;28;20243;-73
2022/08/29 05:06:33;;;;;;;8.17;3.47;;;;;;;11.46;100.00;101176.41;5002540;28;20207;-73
2022/08/29 05:08:59;;;;;;;10.47;4.10;;;;;;;11.41;100.00;101178.25;5002036;28;20201;-73
2022/08/29 05:11:27;;;;;;;3.77;2.97;;;;;;;11.33;100.00;101181.03;5007988;28;20206;-73
2022/08/29 05:13:53;;;;;;;6.27;3.60;;;;;;;11.28;100.00;101178.50;5005607;28;20232;-73
2022/08/29 05:16:20;;;;;;;5.37;3.50;;;;;;;11.44;100.00;101180.81;5003690;28;20678;-74
2022/08/29 05:18:46;;;;;;;9.20;3.97;;;;;;;11.24;100.00;101178.59;5004475;28;20683;-72
2022/08/29 05:21:14;;;;;;;7.90;3.63;;;;;;;11.27;100.00;101183.75;5009018;28;20686;-74
2022/08/29 05:23:42;;;;;;;7.23;3.50;;;;;;;11.31;100.00;101191.50;5011289;28;20225;-74
2022/08/29 05:26:08;;;;;;;7.83;3.47;;;;;;;11.45;100.00;101195.56;4997493;28;20219;-74
2022/08/29 05:28:35;;;;;;;7.57;3.67;;;;;;;11.50;100.00;101199.84;5006701;28;20995;-74
2022/08/29 05:31:02;;;;;;;5.50;3.77;;;;;;;11.42;100.00;101206.97;5003762;28;20711;-74
2022/08/29 05:33:28;;;;;;;7.43;3.90;;;;;;;11.55;100.00;101200.56;5009162;28;20274;-73
2022/08/29 05:35:56;;;;;;;4.93;3.63;;;;;;;11.48;100.00;101206.81;5004941;28;20800;-73
2022/08/29 05:38:22;;;;;;;7.03;3.70;;;;;;;11.50;100.00;101207.66;5006614;28;20227;-74
2022/08/29 05:40:50;;;;;;;7.10;3.73;;;;;;;11.54;100.00;101204.09;5003569;28;20235;-74
2022/08/29 05:43:17;;;;;;;6.80;3.60;;;;;;;11.50;100.00;101207.66;5011273;28;20223;-74
2022/08/29 05:45:44;;;;;;;7.07;3.83;;;;;;;11.60;100.00;101210.94;5004055;28;20240;-74
2022/08/29 05:48:10;;;;;;;6.70;3.93;;;;;;;11.77;100.00;101213.19;5005486;28;20214;-74
2022/08/29 05:50:38;;;;;;;7.87;3.90;;;;;;;12.01;100.00;101216.19;5014188;28;20224;-73
2022/08/29 05:53:04;;;;;;;7.17;4.23;;;;;;;11.91;100.00;101210.31;5008558;28;20232;-74
2022/08/29 05:55:31;;;;;;;5.47;3.73;;;;;;;11.88;100.00;101208.59;5000639;28;20212;-74
2022/08/29 05:57:59;;;;;;;6.30;3.57;;;;;;;12.02;100.00;101212.69;5007532;28;20601;-74
2022/08/29 06:00:26;;;;;;;7.47;3.93;;;;;;;12.05;100.00;101210.84;5000693;28;20224;-74
2022/08/29 06:02:53;;;;;;;7.33;3.40;;;;;;;12.03;100.00;101211.78;5000884;28;20518;-75
2022/08/29 06:05:20;;;;;;;11.03;4.00;;;;;;;12.08;100.00;101213.41;5008916;28;20207;-75
2022/08/29 06:07:47;;;;;;;6.87;3.27;;;;;;;12.16;100.00;101210.59;5010328;28;20217;-75
2022/08/29 06:10:13;;;;;;;9.87;4.43;;;;;;;12.16;100.00;101210.59;5005194;28;20275;-74
2022/08/29 06:12:40;;;;;;;6.47;3.77;;;;;;;12.44;100.00;101209.94;5006131;28;20231;-74
2022/08/29 06:15:08;;;;;;;5.93;3.30;;;;;;;12.48;100.00;101201.13;5004530;28;20692;-75
2022/08/29 06:17:36;;;;;;;5.50;3.83;;;;;;;12.51;100.00;101211.50;5001489;28;20220;-75
2022/08/29 06:20:07;;;;;;;7.13;3.27;;;;;;;12.53;100.00;101212.31;5005638;28;20237;-75
2022/08/29 06:22:35;;;;;;;7.27;3.70;;;;;;;12.65;100.00;101213.78;5005133;28;20220;-75
2022/08/29 06:25:02;;;;;;;6.80;3.73;;;;;;;12.65;100.00;101212.03;4999660;28;20289;-75
2022/08/29 06:27:28;;;;;;;7.40;4.20;;;;;;;12.82;100.00;101211.59;5003514;28;20689;-75
2022/08/29 06:29:55;;;;;;;9.00;3.90;;;;;;;12.93;100.00;101216.53;5007504;28;20216;-75
2022/08/29 06:32:23;;;;;;;5.67;3.70;;;;;;;12.89;100.00;101214.88;5006588;28;20228;-75
2022/08/29 06:34:49;;;;;;;10.50;4.30;;;;;;;12.84;100.00;101212.41;5003470;28;20209;-75
2022/08/29 06:37:16;;;;;;;6.97;4.30;;;;;;;13.02;100.00;101213.69;5007221;28;20219;-74
2022/08/29 06:39:42;;;;;;;8.63;3.97;;;;;;;13.18;100.00;101214.13;5003775;28;20224;-75
2022/08/29 06:42:09;;;;;;;11.60;3.97;;;;;;;13.26;100.00;101220.00;5010089;28;20230;-74
2022/08/29 06:44:36;;;;;;;6.47;3.90;;;;;;;13.26;100.00;101212.16;5007616;28;20219;-75
2022/08/29 06:47:02;;;;;;;5.30;3.60;;;;;;;13.36;100.00;101215.38;5001710;28;20205;-75
2022/08/29 06:49:31;;;;;;;9.17;3.97;;;;;;;13.44;100.00;101210.78;5007003;28;20239;-75
2022/08/29 06:51:57;;;;;;;9.73;4.57;;;;;;;13.58;100.00;101213.03;5005544;28;20219;-74
2022/08/29 06:54:25;;;;;;;9.30;4.27;;;;;;;13.70;100.00;101214.44;5003590;28;20204;-74
2022/08/29 06:56:51;;;;;;;5.73;3.87;;;;;;;13.78;100.00;101217.66;5003363;28;20215;-74
2022/08/29 06:59:19;;;;;;;5.80;4.00;;;;;;;13.78;100.00;101216.81;5006514;28;20215;-75
2022/08/29 07:01:46;;;;;;;9.17;3.93;;;;;;;13.89;100.00;101219.09;5001852;28;20215;-75
2022/08/29 07:04:13;;;;;;;10.60;4.67;;;;;;;14.08;100.00;101222.03;4997578;28;20612;-75
2022/08/29 07:06:41;;;;;;;13.30;4.20;;;;;;;14.07;100.00;101222.91;5005478;28;20212;-75
2022/08/29 07:09:07;;;;;;;8.87;4.00;;;;;;;14.17;100.00;101225.19;5002620;28;20203;-75
2022/08/29 07:11:36;;;;;;;10.57;4.40;;;;;;;14.26;100.00;101226.66;5003060;28;20204;-74
2022/08/29 07:14:03;;;;;;;9.33;4.20;;;;;;;14.35;100.00;101217.66;5000564;28;20485;-74
2022/08/29 07:16:31;;;;;;;7.07;4.27;;;;;;;14.47;100.00;101222.50;5001649;28;20235;-75
2022/08/29 07:18:57;;;;;;;8.33;5.07;;;;;;;14.50;100.00;101226.81;5002684;28;20219;-76
2022/08/29 07:21:26;;;;;;;7.33;4.37;;;;;;;14.56;100.00;101235.34;5004640;28;20640;-74
2022/08/29 07:23:55;;;;;;;10.53;5.00;;;;;;;14.65;100.00;101231.56;5006869;28;20231;-74
2022/08/29 07:26:24;;;;;;;10.00;4.83;;;;;;;14.76;100.00;101241.72;5000653;28;20726;-74
2022/08/29 07:28:53;;;;;;;12.50;4.50;;;;;;;14.80;100.00;101239.84;4998555;28;20210;-74
2022/08/29 07:31:20;;;;;;;10.47;4.47;;;;;;;14.92;100.00;101240.28;5005852;28;20197;-75
2022/08/29 07:33:47;;;;;;;7.30;4.47;;;;;;;15.02;100.00;101238.19;5000362;28;20227;-73
2022/08/29 07:36:14;;;;;;;9.03;4.77;;;;;;;15.14;100.00;101250.00;5000246;28;20222;-74
2022/08/29 07:38:41;;;;;;;9.63;4.40;;;;;;;15.23;100.00;101252.34;5003863;28;21103;-74
2022/08/29 07:41:13;;;;;;;12.13;4.17;;;;;;;15.31;100.00;101250.28;5002705;28;20224;-74
2022/08/29 07:43:40;;;;;;;10.30;3.83;;;;;;;15.41;100.00;101252.56;5004929;28;20227;-74
2022/08/29 07:46:07;;;;;;;10.07;4.00;;;;;;;15.46;100.00;101263.75;5003087;28;20704;-74
2022/08/29 07:48:33;;;;;;;7.83;3.10;;;;;;;15.58;100.00;101258.06;5002328;28;20265;-74
2022/08/29 07:51:00;;;;;;;7.10;2.43;;;;;;;15.63;100.00;101250.00;5002438;28;20196;-75
2022/08/29 07:53:26;;;;;;;4.27;2.50;;;;;;;15.73;100.00;101261.91;5002808;28;20212;-75
2022/08/29 07:55:53;;;;;;;6.80;2.10;;;;;;;15.77;100.00;101258.25;5004342;28;20895;-74
2022/08/29 07:58:20;;;;;;;4.37;2.10;;;;;;;15.81;100.00;101266.91;5005329;28;20205;-75
2022/08/29 08:00:47;;;;;;;4.67;2.77;;;;;;;15.93;100.00;101268.22;5002655;28;20703;-75
2022/08/29 08:03:14;;;;;;;3.10;1.80;;;;;;;16.02;100.00;101267.84;5004315;28;20748;-74
2022/08/29 08:05:41;;;;;;;6.00;2.33;;;;;;;16.08;100.00;101268.47;5001661;28;20208;-75
2022/08/29 08:08:08;;;;;;;5.00;1.97;;;;;;;16.20;100.00;101272.41;5003633;28;20212;-75
2022/08/29 08:10:37;;;;;;;4.53;1.90;;;;;;;16.30;100.00;101266.78;5002278;28;20212;-74
2022/08/29 08:13:04;;;;;;;3.17;1.73;;;;;;;16.36;100.00;101255.97;4999743;28;20232;-74
2022/08/29 08:15:31;;;;;;;2.00;1.63;;;;;;;16.35;100.00;101254.28;5018068;28;20219;-72
2022/08/29 08:17:58;;;;;;;3.97;2.10;;;;;;;16.45;100.00;101256.47;5021759;28;20227;-73
2022/08/29 08:20:24;;;;;;;2.97;2.00;;;;;;;16.60;100.00;101260.28;5017012;28;20978;-74
2022/08/29 08:22:50;;;;;;;7.60;1.93;;;;;;;16.83;100.00;101271.59;5012869;28;20235;-74
2022/08/29 08:25:17;;;;;;;3.30;1.90;;;;;;;16.91;100.00;101273.97;5012202;28;20204;-75
2022/08/29 08:27:44;;;;;;;3.63;2.00;;;;;;;16.98;100.00;101281.53;5005325;28;20289;-75
2022/08/29 08:30:11;;;;;;;4.07;1.80;;;;;;;17.09;100.00;101278.44;5010708;28;20208;-75
2022/08/29 08:32:39;;;;;;;3.80;1.60;;;;;;;17.09;100.00;101278.44;5005961;28;20224;-75
2022/08/29 08:35:06;;;;;;;2.00;1.60;;;;;;;17.00;100.00;101281.47;5008449;28;20205;-75
2022/08/29 08:37:32;;;;;;;4.10;1.60;;;;;;;16.96;100.00;101275.47;5019320;28;20189;-74
2022/08/29 08:39:59;;;;;;;3.53;1.60;;;;;;;16.99;100.00;101279.75;5023774;28;20467;-72
2022/08/29 08:42:38;;;;;;;4.20;1.93;;;;;;;17.21;100.00;101280.53;5018682;28;20217;-74
2022/08/29 08:45:07;;;;;;;2.37;1.80;;;;;;;17.36;100.00;101280.78;5024071;28;20214;-74
2022/08/29 08:47:40;;;;;;;3.90;2.00;;;;;;;17.50;100.00;101288.09;5020311;28;20200;-75
2022/08/29 08:50:14;;;;;;;5.60;1.50;;;;;;;17.57;100.00;101287.75;5018238;28;20209;-75
2022/08/29 08:52:45;;;;;;;2.80;1.87;;;;;;;17.71;100.00;101271.31;5020522;28;20235;-75
2022/08/29 08:55:22;;;;;;;3.20;2.10;;;;;;;17.85;100.00;101267.16;5012098;28;20205;-75
2022/08/29 08:57:59;;;;;;;2.50;1.77;;;;;;;17.96;100.00;101270.22;5004414;28;20201;-75
2022/08/29 09:00:28;;;;;;;2.80;1.63;;;;;;;18.15;100.00;101263.13;5005705;28;20235;-75
2022/08/29 09:03:03;;;;;;;4.23;1.87;;;;;;;18.34;100.00;101272.78;5006659;28;20872;-75
2022/08/29 09:05:42;;;;;;;4.43;1.83;;;;;;;18.54;100.00;101288.53;5004976;28;20870;-74
2022/08/29 09:08:22;;;;;;;3.43;1.47;;;;;;;18.49;100.00;101287.03;5005248;28;20204;-72
2022/08/29 09:10:55;;;;;;;2.17;1.30;;;;;;;18.47;100.00;101284.47;5009229;28;20204;-75
2022/08/29 09:13:34;;;;;;;4.10;1.73;;;;;;;18.25;100.00;101278.53;5021866;23;20310;-74
2022/08/29 09:16:05;;;;;;;5.93;1.77;;;;;;;17.93;100.00;101286.19;5022186;28;20204;-74
2022/08/29 09:18:36;;;;;;;3.93;1.97;;;;;;;17.80;100.00;101277.94;5024846;28;20200;-74
2022/08/29 09:21:04;;;;;;;3.90;1.90;;;;;;;18.03;100.00;101279.53;5025509;28;20223;-74
2022/08/29 09:23:38;;;;;;;3.83;1.53;;;;;;;18.15;100.00;101273.69;5023313;28;20228;-74
2022/08/29 09:26:05;;;;;;;3.07;1.77;;;;;;;18.47;100.00;101270.44;5023892;28;20196;-75
2022/08/29 09:28:32;;;;;;;4.80;1.80;;;;;;;18.56;100.00;101283.16;5021065;28;20208;-74
2022/08/29 09:31:20;;;;;;;2.27;1.67;;;;;;;18.70;100.00;101280.69;5026651;28;20204;-75
2022/08/29 09:33:51;;;;;;;4.27;1.60;;;;;;;18.85;100.00;101291.44;5022973;28;20591;-74
2022/08/29 09:36:34;;;;;;;2.30;1.70;;;;;;;18.58;100.00;101294.50;5007582;28;20204;-74
2022/08/29 09:39:11;;;;;;;2.60;1.60;;;;;;;18.34;100.00;101292.13;5022046;28;20231;-74
2022/08/29 09:41:38;;;;;;;5.33;1.60;;;;;;;18.31;100.00;101288.75;5018608;28;20250;-75
2022/08/29 09:44:05;;;;;;;3.10;1.97;;;;;;;18.51;100.00;101280.75;5023366;28;20234;-75
2022/08/29 09:46:31;;;;;;;4.43;1.97;;;;;;;18.61;100.00;101283.81;5019235;28;20728;-74
2022/08/29 09:49:14;;;;;;;3.50;1.70;;;;;;;18.88;100.00;101286.88;5024141;28;20212;-74
2022/08/29 09:51:42;;;;;;;2.43;1.57;;;;;;;19.21;100.00;101291.38;5023682;28;20206;-75
2022/08/29 09:54:26;;;;;;;3.47;1.50;;;;;;;19.22;100.00;101287.78;5024359;28;20225;-75
2022/08/29 09:56:55;;;;;;;3.33;2.10;;;;;;;19.10;100.00;101302.50;5023000;28;20218;-75
2022/08/29 09:59:26;;;;;;;4.03;2.00;;;;;;;19.05;100.00;101290.44;5018965;28;20322;-74
2022/08/29 10:02:17;;;;;;;3.40;2.00;;;;;;;19.07;100.00;101289.44;5023820;28;20220;-74
2022/08/29 10:04:46;;;;;;;3.20;1.60;;;;;;;18.90;100.00;101286.78;5005017;28;20207;-74
2022/08/29 10:07:18;;;;;;;3.80;1.90;;;;;;;18.92;100.00;101283.13;5016084;28;20204;-74
2022/08/29 10:09:59;;;;;;;5.83;2.00;;;;;;;19.20;100.00;101281.72;5022581;28;20204;-74
2022/08/29 10:12:31;;;;;;;4.23;2.30;;;;;;;19.18;100.00;101294.16;5021837;28;20664;-74
2022/08/29 10:15:02;;;;;;;2.90;1.70;;;;;;;18.98;100.00;101283.75;5019962;28;20586;-74
2022/08/29 10:20:22;;;;;;;3.00;1.90;;;;;;;18.94;100.00;101276.94;5024835;28;20626;-74
2022/08/29 10:22:59;;;;;;;3.40;2.20;;;;;;;19.04;100.00;101275.53;5024434;28;20220;-74
2022/08/29 10:25:34;;;;;;;2.57;1.60;;;;;;;19.23;100.00;101278.06;5022460;28;20203;-74
2022/08/29 10:28:06;;;;;;;3.63;2.10;;;;;;;19.17;100.00;101281.91;5020023;28;20547;-74
2022/08/29 10:30:42;;;;;;;4.10;1.70;;;;;;;19.21;100.00;101286.09;5025539;28;20203;-74
2022/08/29 10:33:18;;;;;;;3.73;1.80;;;;;;;19.41;100.00;101282.38;5022927;28;20589;-74
2022/08/29 10:35:55;;;;;;;4.20;2.00;;;;;;;19.61;100.00;101283.09;5023020;28;20207;-74
2022/08/29 10:38:33;;;;;;;4.07;1.80;;;;;;;19.81;100.00;101284.72;5019277;28;20202;-74
2022/08/29 10:41:06;;;;;;;2.67;1.70;;;;;;;19.96;100.00;101290.97;5023592;28;20223;-74
2022/08/29 10:43:39;;;;;;;3.37;1.63;;;;;;;19.89;100.00;101290.44;5021527;28;20305;-74
2022/08/29 10:46:39;;;;;;;4.13;2.00;;;;;;;19.74;100.00;101286.84;5022671;28;20930;-74
2022/08/29 10:49:16;;;;;;;3.63;1.90;;;;;;;19.80;100.00;101290.94;5004497;28;20226;-74
2022/08/29 10:51:53;;;;;;;2.10;1.57;;;;;;;19.98;100.00;101284.66;5025758;28;20203;-74
2022/08/29 10:54:32;;;;;;;3.10;1.60;;;;;;;20.15;100.00;101281.06;5021400;28;20219;-73
2022/08/29 10:57:00;;;;;;;2.27;1.60;;;;;;;20.17;100.00;101283.63;5024623;28;20207;-74
2022/08/29 10:59:36;;;;;;;2.03;1.50;;;;;;;20.20;100.00;101283.47;5021884;28;20554;-74
2022/08/29 11:02:08;;;;;;;2.57;1.80;;;;;;;20.39;100.00;101281.47;5021199;28;20211;-74
2022/08/29 11:04:38;;;;;;;1.90;1.60;;;;;;;20.48;100.00;101295.97;5023433;28;20232;-74
2022/08/29 11:07:10;;;;;;;4.50;1.80;;;;;;;20.53;100.00;101301.03;5019686;28;20212;-74
2022/08/29 11:09:42;;;;;;;4.37;2.20;;;;;;;20.12;100.00;101299.78;5021273;28;20215;-74
2022/08/29 11:12:14;;;;;;;1.97;1.67;;;;;;;20.23;100.00;101294.72;5023024;28;20202;-74
2022/08/29 11:14:46;;;;;;;4.17;1.83;;;;;;;20.39;100.00;101293.88;5022290;28;20246;-74
2022/08/29 11:17:16;;;;;;;2.90;1.67;;;;;;;20.61;100.00;101297.03;5020060;28;20210;-74
2022/08/29 11:19:51;;;;;;;4.57;1.98;;;;;;;20.59;100.00;101295.38;5023113;28;20211;-74
2022/08/29 11:22:24;;;;;;;3.15;1.98;;;;;;;20.23;100.00;101296.53;5024874;28;20490;-74
2022/08/29 11:25:00;;;;;;;2.90;1.80;;;;;;;19.91;100.00;101298.28;5018469;28;20215;-74
2022/08/29 11:27:37;;;;;;;3.10;1.80;;;;;;;19.94;100.00;101277.81;5020658;28;20196;-74